sensor_id;sensor_type;location;lat;lon;timestamp;P1;durP1;ratioP1;P2;durP2;ratioP2
1308;SDS011;647;48.840;9.314;2022-10-16T00:00:31;58.77;;;3.20;;
1308;SDS011;647;48.840;9.314;2022-10-16T00:02:59;57.67;;;2.60;;
1308;SDS011;647;48.840;9.314;2022-10-16T00:05:26;58.10;;;3.00;;
1308;SDS011;647;48.840;9.314;2022-10-16T00:07:53;58.00;;;2.93;;
1308;SDS011;647;48.840;9.314;2022-10-16T00:10:21;58.00;;;2.90;;
1308;SDS011;647;48.840;9.314;2022-10-16T00:12:48;58.37;;;3.30;;
1308;SDS011;647;48.840;9.314;2022-10-16T00:15:15;57.90;;;2.93;;
1308;SDS011;647;48.840;9.314;2022-10-16T00:17:42;57.97;;;2.80;;
1308;SDS011;647;48.840;9.314;2022-10-16T00:20:11;59.20;;;2.67;;
1308;SDS011;647;48.840;9.314;2022-10-16T00:22:38;58.40;;;3.13;;
1308;SDS011;647;48.840;9.314;2022-10-16T00:25:05;58.50;;;3.17;;
1308;SDS011;647;48.840;9.314;2022-10-16T00:27:33;58.27;;;3.00;;
1308;SDS011;647;48.840;9.314;2022-10-16T00:30:00;58.40;;;2.57;;
1308;SDS011;647;48.840;9.314;2022-10-16T00:32:27;57.43;;;2.53;;
1308;SDS011;647;48.840;9.314;2022-10-16T00:34:54;59.40;;;3.10;;
1308;SDS011;647;48.840;9.314;2022-10-16T00:37:23;58.43;;;3.10;;
1308;SDS011;647;48.840;9.314;2022-10-16T00:39:50;57.80;;;2.70;;
1308;SDS011;647;48.840;9.314;2022-10-16T00:42:18;58.07;;;3.60;;
1308;SDS011;647;48.840;9.314;2022-10-16T00:44:49;57.80;;;2.70;;
1308;SDS011;647;48.840;9.314;2022-10-16T00:47:19;58.50;;;2.73;;
1308;SDS011;647;48.840;9.314;2022-10-16T00:49:47;58.07;;;3.00;;
1308;SDS011;647;48.840;9.314;2022-10-16T00:52:16;57.77;;;2.73;;
1308;SDS011;647;48.840;9.314;2022-10-16T00:54:45;59.17;;;3.07;;
1308;SDS011;647;48.840;9.314;2022-10-16T00:57:13;58.47;;;3.53;;
1308;SDS011;647;48.840;9.314;2022-10-16T00:59:40;58.10;;;3.10;;
1308;SDS011;647;48.840;9.314;2022-10-16T01:02:08;57.63;;;2.50;;
1308;SDS011;647;48.840;9.314;2022-10-16T01:04:37;58.40;;;2.93;;
1308;SDS011;647;48.840;9.314;2022-10-16T01:07:06;59.23;;;3.27;;
1308;SDS011;647;48.840;9.314;2022-10-16T01:09:37;57.80;;;2.60;;
1308;SDS011;647;48.840;9.314;2022-10-16T01:12:10;58.17;;;2.83;;
1308;SDS011;647;48.840;9.314;2022-10-16T01:14:43;58.10;;;3.00;;
1308;SDS011;647;48.840;9.314;2022-10-16T01:17:13;58.30;;;3.20;;
1308;SDS011;647;48.840;9.314;2022-10-16T01:19:50;59.13;;;3.40;;
1308;SDS011;647;48.840;9.314;2022-10-16T01:22:19;58.07;;;2.93;;
1308;SDS011;647;48.840;9.314;2022-10-16T01:24:48;59.67;;;3.97;;
1308;SDS011;647;48.840;9.314;2022-10-16T01:27:17;58.57;;;3.83;;
1308;SDS011;647;48.840;9.314;2022-10-16T01:29:48;58.60;;;3.03;;
1308;SDS011;647;48.840;9.314;2022-10-16T01:32:22;58.47;;;3.80;;
1308;SDS011;647;48.840;9.314;2022-10-16T01:34:51;58.30;;;3.30;;
1308;SDS011;647;48.840;9.314;2022-10-16T01:37:21;57.47;;;2.50;;
1308;SDS011;647;48.840;9.314;2022-10-16T01:39:49;58.50;;;3.27;;
1308;SDS011;647;48.840;9.314;2022-10-16T01:42:19;58.27;;;3.07;;
1308;SDS011;647;48.840;9.314;2022-10-16T01:44:47;58.30;;;3.10;;
1308;SDS011;647;48.840;9.314;2022-10-16T01:47:15;58.30;;;3.00;;
1308;SDS011;647;48.840;9.314;2022-10-16T01:49:44;57.90;;;3.00;;
1308;SDS011;647;48.840;9.314;2022-10-16T01:52:13;58.07;;;3.07;;
1308;SDS011;647;48.840;9.314;2022-10-16T01:54:42;57.90;;;2.70;;
1308;SDS011;647;48.840;9.314;2022-10-16T01:57:10;57.93;;;3.10;;
1308;SDS011;647;48.840;9.314;2022-10-16T01:59:40;57.57;;;2.73;;
1308;SDS011;647;48.840;9.314;2022-10-16T02:02:09;57.87;;;2.87;;
1308;SDS011;647;48.840;9.314;2022-10-16T02:04:37;58.30;;;3.20;;
1308;SDS011;647;48.840;9.314;2022-10-16T02:07:05;57.63;;;2.70;;
1308;SDS011;647;48.840;9.314;2022-10-16T02:09:33;57.57;;;2.70;;
1308;SDS011;647;48.840;9.314;2022-10-16T02:12:01;57.97;;;2.70;;
1308;SDS011;647;48.840;9.314;2022-10-16T02:14:30;58.37;;;2.90;;
1308;SDS011;647;48.840;9.314;2022-10-16T02:16:59;58.67;;;3.70;;
1308;SDS011;647;48.840;9.314;2022-10-16T02:19:26;57.90;;;3.03;;
1308;SDS011;647;48.840;9.314;2022-10-16T02:21:54;58.07;;;3.03;;
1308;SDS011;647;48.840;9.314;2022-10-16T02:24:23;57.73;;;2.70;;
1308;SDS011;647;48.840;9.314;2022-10-16T02:26:55;58.80;;;3.30;;
1308;SDS011;647;48.840;9.314;2022-10-16T02:29:25;60.00;;;3.70;;
1308;SDS011;647;48.840;9.314;2022-10-16T02:31:54;58.40;;;2.90;;
1308;SDS011;647;48.840;9.314;2022-10-16T02:34:23;57.60;;;2.70;;
1308;SDS011;647;48.840;9.314;2022-10-16T02:36:51;57.43;;;2.60;;
1308;SDS011;647;48.840;9.314;2022-10-16T02:39:19;57.80;;;2.50;;
1308;SDS011;647;48.840;9.314;2022-10-16T02:41:47;57.47;;;2.80;;
1308;SDS011;647;48.840;9.314;2022-10-16T02:44:14;57.53;;;2.70;;
1308;SDS011;647;48.840;9.314;2022-10-16T02:46:41;57.47;;;2.57;;
1308;SDS011;647;48.840;9.314;2022-10-16T02:49:08;59.10;;;3.63;;
1308;SDS011;647;48.840;9.314;2022-10-16T02:51:37;58.57;;;3.13;;
1308;SDS011;647;48.840;9.314;2022-10-16T02:54:04;57.77;;;2.67;;
1308;SDS011;647;48.840;9.314;2022-10-16T02:56:31;58.20;;;3.10;;
1308;SDS011;647;48.840;9.314;2022-10-16T02:58:58;57.87;;;2.87;;
1308;SDS011;647;48.840;9.314;2022-10-16T03:01:26;57.70;;;2.77;;
1308;SDS011;647;48.840;9.314;2022-10-16T03:03:53;57.87;;;2.60;;
1308;SDS011;647;48.840;9.314;2022-10-16T03:06:20;57.90;;;2.97;;
1308;SDS011;647;48.840;9.314;2022-10-16T03:08:49;57.80;;;2.90;;
1308;SDS011;647;48.840;9.314;2022-10-16T03:11:17;57.60;;;2.30;;
1308;SDS011;647;48.840;9.314;2022-10-16T03:13:44;58.00;;;3.00;;
1308;SDS011;647;48.840;9.314;2022-10-16T03:16:11;57.60;;;2.60;;
1308;SDS011;647;48.840;9.314;2022-10-16T03:18:38;58.07;;;2.87;;
1308;SDS011;647;48.840;9.314;2022-10-16T03:21:05;58.10;;;3.20;;
1308;SDS011;647;48.840;9.314;2022-10-16T03:23:32;57.53;;;2.57;;
1308;SDS011;647;48.840;9.314;2022-10-16T03:26:01;58.00;;;3.00;;
1308;SDS011;647;48.840;9.314;2022-10-16T03:28:28;57.53;;;2.77;;
1308;SDS011;647;48.840;9.314;2022-10-16T03:30:55;57.83;;;2.97;;
1308;SDS011;647;48.840;9.314;2022-10-16T03:33:22;59.20;;;2.77;;
1308;SDS011;647;48.840;9.314;2022-10-16T03:35:52;59.07;;;2.90;;
1308;SDS011;647;48.840;9.314;2022-10-16T03:38:20;57.97;;;3.00;;
1308;SDS011;647;48.840;9.314;2022-10-16T03:40:47;57.57;;;2.60;;
1308;SDS011;647;48.840;9.314;2022-10-16T03:43:15;57.73;;;2.70;;
1308;SDS011;647;48.840;9.314;2022-10-16T03:45:42;57.90;;;2.50;;
1308;SDS011;647;48.840;9.314;2022-10-16T03:48:10;57.73;;;2.60;;
1308;SDS011;647;48.840;9.314;2022-10-16T03:50:37;58.57;;;3.40;;
1308;SDS011;647;48.840;9.314;2022-10-16T03:53:04;58.10;;;2.97;;
1308;SDS011;647;48.840;9.314;2022-10-16T03:55:31;58.67;;;2.90;;
1308;SDS011;647;48.840;9.314;2022-10-16T03:57:58;58.27;;;2.60;;
1308;SDS011;647;48.840;9.314;2022-10-16T04:00:27;58.00;;;2.70;;
1308;SDS011;647;48.840;9.314;2022-10-16T04:02:54;57.70;;;2.80;;
1308;SDS011;647;48.840;9.314;2022-10-16T04:05:21;57.67;;;2.90;;
1308;SDS011;647;48.840;9.314;2022-10-16T04:07:48;58.00;;;2.87;;
1308;SDS011;647;48.840;9.314;2022-10-16T04:10:15;58.00;;;2.80;;
1308;SDS011;647;48.840;9.314;2022-10-16T04:12:42;57.40;;;2.50;;
1308;SDS011;647;48.840;9.314;2022-10-16T04:15:09;57.53;;;2.87;;
1308;SDS011;647;48.840;9.314;2022-10-16T04:17:38;57.73;;;2.60;;
1308;SDS011;647;48.840;9.314;2022-10-16T04:20:05;57.67;;;2.50;;
1308;SDS011;647;48.840;9.314;2022-10-16T04:22:32;57.53;;;2.67;;
1308;SDS011;647;48.840;9.314;2022-10-16T04:25:00;58.30;;;2.77;;
1308;SDS011;647;48.840;9.314;2022-10-16T04:27:27;57.57;;;2.40;;
1308;SDS011;647;48.840;9.314;2022-10-16T04:29:56;57.80;;;2.60;;
1308;SDS011;647;48.840;9.314;2022-10-16T04:32:23;57.57;;;2.47;;
1308;SDS011;647;48.840;9.314;2022-10-16T04:34:52;58.67;;;3.20;;
1308;SDS011;647;48.840;9.314;2022-10-16T04:37:19;57.67;;;2.40;;
1308;SDS011;647;48.840;9.314;2022-10-16T04:39:46;57.80;;;2.50;;
1308;SDS011;647;48.840;9.314;2022-10-16T04:42:13;58.20;;;3.10;;
1308;SDS011;647;48.840;9.314;2022-10-16T04:44:40;58.83;;;2.60;;
1308;SDS011;647;48.840;9.314;2022-10-16T04:47:07;57.67;;;2.73;;
1308;SDS011;647;48.840;9.314;2022-10-16T04:49:34;58.00;;;2.70;;
1308;SDS011;647;48.840;9.314;2022-10-16T04:52:03;58.20;;;2.80;;
1308;SDS011;647;48.840;9.314;2022-10-16T04:54:30;57.57;;;2.67;;
1308;SDS011;647;48.840;9.314;2022-10-16T04:56:57;57.63;;;2.80;;
1308;SDS011;647;48.840;9.314;2022-10-16T04:59:24;58.10;;;2.70;;
1308;SDS011;647;48.840;9.314;2022-10-16T05:01:51;57.60;;;2.37;;
1308;SDS011;647;48.840;9.314;2022-10-16T05:04:18;57.70;;;2.60;;
1308;SDS011;647;48.840;9.314;2022-10-16T05:06:45;57.80;;;2.87;;
1308;SDS011;647;48.840;9.314;2022-10-16T05:09:14;58.83;;;2.90;;
1308;SDS011;647;48.840;9.314;2022-10-16T05:11:41;57.57;;;2.53;;
1308;SDS011;647;48.840;9.314;2022-10-16T05:14:08;57.77;;;2.47;;
1308;SDS011;647;48.840;9.314;2022-10-16T05:16:35;57.67;;;2.50;;
1308;SDS011;647;48.840;9.314;2022-10-16T05:19:02;57.90;;;2.70;;
1308;SDS011;647;48.840;9.314;2022-10-16T05:21:29;57.83;;;2.67;;
1308;SDS011;647;48.840;9.314;2022-10-16T05:23:56;57.27;;;2.70;;
1308;SDS011;647;48.840;9.314;2022-10-16T05:26:25;58.80;;;3.20;;
1308;SDS011;647;48.840;9.314;2022-10-16T05:28:52;58.07;;;2.87;;
1308;SDS011;647;48.840;9.314;2022-10-16T05:31:19;57.70;;;2.80;;
1308;SDS011;647;48.840;9.314;2022-10-16T05:33:46;59.80;;;3.07;;
1308;SDS011;647;48.840;9.314;2022-10-16T05:36:13;58.07;;;3.13;;
1308;SDS011;647;48.840;9.314;2022-10-16T05:38:40;58.20;;;3.03;;
1308;SDS011;647;48.840;9.314;2022-10-16T05:41:07;57.77;;;2.90;;
1308;SDS011;647;48.840;9.314;2022-10-16T05:43:36;57.90;;;2.60;;
1308;SDS011;647;48.840;9.314;2022-10-16T05:46:04;58.17;;;2.90;;
1308;SDS011;647;48.840;9.314;2022-10-16T05:48:31;58.27;;;2.63;;
1308;SDS011;647;48.840;9.314;2022-10-16T05:50:59;57.57;;;2.33;;
1308;SDS011;647;48.840;9.314;2022-10-16T05:53:27;57.67;;;2.93;;
1308;SDS011;647;48.840;9.314;2022-10-16T05:55:54;58.80;;;3.20;;
1308;SDS011;647;48.840;9.314;2022-10-16T05:58:21;58.37;;;3.10;;
1308;SDS011;647;48.840;9.314;2022-10-16T06:00:54;57.90;;;2.80;;
1308;SDS011;647;48.840;9.314;2022-10-16T06:03:21;57.70;;;2.70;;
1308;SDS011;647;48.840;9.314;2022-10-16T06:05:48;57.87;;;2.80;;
1308;SDS011;647;48.840;9.314;2022-10-16T06:08:16;58.10;;;2.90;;
1308;SDS011;647;48.840;9.314;2022-10-16T06:10:43;57.47;;;2.60;;
1308;SDS011;647;48.840;9.314;2022-10-16T06:13:10;58.27;;;2.70;;
1308;SDS011;647;48.840;9.314;2022-10-16T06:15:37;59.20;;;2.77;;
1308;SDS011;647;48.840;9.314;2022-10-16T06:18:08;57.70;;;2.87;;
1308;SDS011;647;48.840;9.314;2022-10-16T06:20:35;57.80;;;2.93;;
1308;SDS011;647;48.840;9.314;2022-10-16T06:23:02;57.97;;;2.87;;
1308;SDS011;647;48.840;9.314;2022-10-16T06:25:29;58.10;;;2.97;;
1308;SDS011;647;48.840;9.314;2022-10-16T06:27:56;58.03;;;3.20;;
1308;SDS011;647;48.840;9.314;2022-10-16T06:30:24;58.70;;;2.87;;
1308;SDS011;647;48.840;9.314;2022-10-16T06:32:51;57.70;;;2.83;;
1308;SDS011;647;48.840;9.314;2022-10-16T06:35:19;58.07;;;3.00;;
1308;SDS011;647;48.840;9.314;2022-10-16T06:37:46;58.10;;;2.60;;
1308;SDS011;647;48.840;9.314;2022-10-16T06:40:14;57.70;;;3.10;;
1308;SDS011;647;48.840;9.314;2022-10-16T06:42:41;57.90;;;2.60;;
1308;SDS011;647;48.840;9.314;2022-10-16T06:45:09;57.70;;;2.60;;
1308;SDS011;647;48.840;9.314;2022-10-16T06:47:36;57.67;;;2.70;;
1308;SDS011;647;48.840;9.314;2022-10-16T06:50:03;57.67;;;2.47;;
1308;SDS011;647;48.840;9.314;2022-10-16T06:52:33;57.70;;;2.60;;
1308;SDS011;647;48.840;9.314;2022-10-16T06:55:01;57.87;;;2.70;;
1308;SDS011;647;48.840;9.314;2022-10-16T06:57:28;57.67;;;2.40;;
1308;SDS011;647;48.840;9.314;2022-10-16T06:59:56;58.33;;;3.23;;
1308;SDS011;647;48.840;9.314;2022-10-16T07:02:23;57.57;;;2.80;;
1308;SDS011;647;48.840;9.314;2022-10-16T07:04:50;58.93;;;3.20;;
1308;SDS011;647;48.840;9.314;2022-10-16T07:07:17;57.73;;;2.60;;
1308;SDS011;647;48.840;9.314;2022-10-16T07:09:45;57.70;;;2.50;;
1308;SDS011;647;48.840;9.314;2022-10-16T07:12:12;57.17;;;2.47;;
1308;SDS011;647;48.840;9.314;2022-10-16T07:14:40;58.77;;;3.57;;
1308;SDS011;647;48.840;9.314;2022-10-16T07:17:07;58.00;;;2.57;;
1308;SDS011;647;48.840;9.314;2022-10-16T07:19:34;59.10;;;3.20;;
1308;SDS011;647;48.840;9.314;2022-10-16T07:22:01;57.57;;;2.53;;
1308;SDS011;647;48.840;9.314;2022-10-16T07:24:29;58.00;;;2.77;;
1308;SDS011;647;48.840;9.314;2022-10-16T07:26:58;57.47;;;2.67;;
1308;SDS011;647;48.840;9.314;2022-10-16T07:29:25;57.83;;;2.90;;
1308;SDS011;647;48.840;9.314;2022-10-16T07:31:53;58.20;;;3.10;;
1308;SDS011;647;48.840;9.314;2022-10-16T07:34:20;57.67;;;2.50;;
1308;SDS011;647;48.840;9.314;2022-10-16T07:36:47;57.67;;;2.87;;
1308;SDS011;647;48.840;9.314;2022-10-16T07:39:15;57.60;;;2.70;;
1308;SDS011;647;48.840;9.314;2022-10-16T07:41:42;57.90;;;3.30;;
1308;SDS011;647;48.840;9.314;2022-10-16T07:44:11;58.10;;;2.90;;
1308;SDS011;647;48.840;9.314;2022-10-16T07:46:38;57.67;;;3.07;;
1308;SDS011;647;48.840;9.314;2022-10-16T07:49:05;57.90;;;3.07;;
1308;SDS011;647;48.840;9.314;2022-10-16T07:51:32;57.90;;;2.70;;
1308;SDS011;647;48.840;9.314;2022-10-16T07:53:59;58.30;;;2.70;;
1308;SDS011;647;48.840;9.314;2022-10-16T07:56:26;57.87;;;2.70;;
1308;SDS011;647;48.840;9.314;2022-10-16T07:58:54;59.23;;;2.67;;
1308;SDS011;647;48.840;9.314;2022-10-16T08:01:22;57.90;;;3.03;;
1308;SDS011;647;48.840;9.314;2022-10-16T08:03:50;57.77;;;2.77;;
1308;SDS011;647;48.840;9.314;2022-10-16T08:06:18;57.50;;;2.80;;
1308;SDS011;647;48.840;9.314;2022-10-16T08:08:45;60.13;;;2.70;;
1308;SDS011;647;48.840;9.314;2022-10-16T08:11:13;58.50;;;3.60;;
1308;SDS011;647;48.840;9.314;2022-10-16T08:13:40;58.57;;;3.40;;
1308;SDS011;647;48.840;9.314;2022-10-16T08:16:07;58.20;;;3.07;;
1308;SDS011;647;48.840;9.314;2022-10-16T08:18:36;57.77;;;3.00;;
1308;SDS011;647;48.840;9.314;2022-10-16T08:21:04;58.80;;;3.40;;
1308;SDS011;647;48.840;9.314;2022-10-16T08:23:32;57.60;;;2.80;;
1308;SDS011;647;48.840;9.314;2022-10-16T08:26:02;57.60;;;2.73;;
1308;SDS011;647;48.840;9.314;2022-10-16T08:28:29;58.20;;;2.90;;
1308;SDS011;647;48.840;9.314;2022-10-16T08:31:04;58.30;;;3.27;;
1308;SDS011;647;48.840;9.314;2022-10-16T08:33:31;58.40;;;3.00;;
1308;SDS011;647;48.840;9.314;2022-10-16T08:36:01;57.80;;;2.93;;
1308;SDS011;647;48.840;9.314;2022-10-16T08:38:28;57.87;;;2.83;;
1308;SDS011;647;48.840;9.314;2022-10-16T08:40:56;58.80;;;3.07;;
1308;SDS011;647;48.840;9.314;2022-10-16T08:43:30;58.30;;;3.00;;
1308;SDS011;647;48.840;9.314;2022-10-16T08:46:07;59.00;;;3.03;;
1308;SDS011;647;48.840;9.314;2022-10-16T08:48:40;57.87;;;2.80;;
1308;SDS011;647;48.840;9.314;2022-10-16T08:51:14;58.10;;;3.07;;
1308;SDS011;647;48.840;9.314;2022-10-16T08:53:44;57.87;;;3.27;;
1308;SDS011;647;48.840;9.314;2022-10-16T08:56:13;60.30;;;3.00;;
1308;SDS011;647;48.840;9.314;2022-10-16T08:58:40;58.10;;;3.10;;
1308;SDS011;647;48.840;9.314;2022-10-16T09:01:11;57.87;;;3.20;;
1308;SDS011;647;48.840;9.314;2022-10-16T09:06:32;58.10;;;2.70;;
1308;SDS011;647;48.840;9.314;2022-10-16T09:09:09;58.20;;;2.97;;
1308;SDS011;647;48.840;9.314;2022-10-16T09:11:44;58.10;;;2.80;;
1308;SDS011;647;48.840;9.314;2022-10-16T09:14:17;58.30;;;2.90;;
1308;SDS011;647;48.840;9.314;2022-10-16T09:16:52;57.93;;;2.60;;
1308;SDS011;647;48.840;9.314;2022-10-16T09:19:21;58.00;;;2.77;;
1308;SDS011;647;48.840;9.314;2022-10-16T09:21:51;57.80;;;2.80;;
1308;SDS011;647;48.840;9.314;2022-10-16T09:24:19;58.40;;;2.93;;
1308;SDS011;647;48.840;9.314;2022-10-16T09:26:47;58.40;;;2.60;;
1308;SDS011;647;48.840;9.314;2022-10-16T09:29:14;58.47;;;2.90;;
1308;SDS011;647;48.840;9.314;2022-10-16T09:31:42;58.00;;;2.57;;
1308;SDS011;647;48.840;9.314;2022-10-16T09:34:11;58.30;;;2.93;;
1308;SDS011;647;48.840;9.314;2022-10-16T09:36:44;57.50;;;2.40;;
1308;SDS011;647;48.840;9.314;2022-10-16T09:39:13;57.37;;;2.40;;
1308;SDS011;647;48.840;9.314;2022-10-16T09:41:40;57.77;;;2.27;;
1308;SDS011;647;48.840;9.314;2022-10-16T09:44:16;58.00;;;2.37;;
1308;SDS011;647;48.840;9.314;2022-10-16T09:46:45;57.27;;;2.20;;
1308;SDS011;647;48.840;9.314;2022-10-16T09:49:21;58.07;;;2.33;;
1308;SDS011;647;48.840;9.314;2022-10-16T09:51:49;57.87;;;2.47;;
1308;SDS011;647;48.840;9.314;2022-10-16T09:54:18;57.10;;;2.27;;
1308;SDS011;647;48.840;9.314;2022-10-16T09:56:45;57.57;;;2.17;;
1308;SDS011;647;48.840;9.314;2022-10-16T09:59:17;57.83;;;2.40;;
1308;SDS011;647;48.840;9.314;2022-10-16T10:01:45;59.13;;;2.53;;
1308;SDS011;647;48.840;9.314;2022-10-16T10:04:13;58.20;;;2.90;;
1308;SDS011;647;48.840;9.314;2022-10-16T10:06:41;57.60;;;2.17;;
1308;SDS011;647;48.840;9.314;2022-10-16T10:09:18;57.60;;;2.30;;
1308;SDS011;647;48.840;9.314;2022-10-16T10:11:50;57.53;;;2.13;;
1308;SDS011;647;48.840;9.314;2022-10-16T10:14:19;58.80;;;2.70;;
1308;SDS011;647;48.840;9.314;2022-10-16T10:16:47;57.10;;;2.07;;
1308;SDS011;647;48.840;9.314;2022-10-16T10:19:14;57.07;;;2.10;;
1308;SDS011;647;48.840;9.314;2022-10-16T10:21:42;57.40;;;1.87;;
1308;SDS011;647;48.840;9.314;2022-10-16T10:24:10;57.50;;;2.20;;
1308;SDS011;647;48.840;9.314;2022-10-16T10:26:39;57.60;;;2.00;;
1308;SDS011;647;48.840;9.314;2022-10-16T10:29:12;56.77;;;2.00;;
1308;SDS011;647;48.840;9.314;2022-10-16T10:31:42;57.73;;;2.10;;
1308;SDS011;647;48.840;9.314;2022-10-16T10:34:23;57.20;;;1.97;;
1308;SDS011;647;48.840;9.314;2022-10-16T10:36:54;57.27;;;1.83;;
1308;SDS011;647;48.840;9.314;2022-10-16T10:39:25;57.43;;;2.07;;
1308;SDS011;647;48.840;9.314;2022-10-16T10:42:02;57.30;;;2.00;;
1308;SDS011;647;48.840;9.314;2022-10-16T10:44:35;56.73;;;1.70;;
1308;SDS011;647;48.840;9.314;2022-10-16T10:47:05;57.47;;;2.30;;
1308;SDS011;647;48.840;9.314;2022-10-16T10:49:44;57.77;;;2.00;;
1308;SDS011;647;48.840;9.314;2022-10-16T10:52:31;57.90;;;1.90;;
1308;SDS011;647;48.840;9.314;2022-10-16T10:55:03;56.83;;;1.80;;
1308;SDS011;647;48.840;9.314;2022-10-16T10:57:39;58.07;;;2.23;;
1308;SDS011;647;48.840;9.314;2022-10-16T11:00:12;57.53;;;2.10;;
1308;SDS011;647;48.840;9.314;2022-10-16T11:02:44;57.60;;;2.10;;
1308;SDS011;647;48.840;9.314;2022-10-16T11:05:18;57.80;;;2.10;;
1308;SDS011;647;48.840;9.314;2022-10-16T11:07:49;57.70;;;2.00;;
1308;SDS011;647;48.840;9.314;2022-10-16T11:10:18;57.13;;;2.00;;
1308;SDS011;647;48.840;9.314;2022-10-16T11:12:49;57.40;;;2.00;;
1308;SDS011;647;48.840;9.314;2022-10-16T11:15:19;58.07;;;2.20;;
1308;SDS011;647;48.840;9.314;2022-10-16T11:17:49;57.20;;;2.00;;
1308;SDS011;647;48.840;9.314;2022-10-16T11:20:18;57.50;;;1.80;;
1308;SDS011;647;48.840;9.314;2022-10-16T11:22:47;57.20;;;1.90;;
1308;SDS011;647;48.840;9.314;2022-10-16T11:25:16;59.57;;;2.27;;
1308;SDS011;647;48.840;9.314;2022-10-16T11:27:47;57.60;;;2.27;;
1308;SDS011;647;48.840;9.314;2022-10-16T11:30:18;57.20;;;2.50;;
1308;SDS011;647;48.840;9.314;2022-10-16T11:32:51;58.10;;;2.10;;
1308;SDS011;647;48.840;9.314;2022-10-16T11:35:19;57.00;;;1.80;;
1308;SDS011;647;48.840;9.314;2022-10-16T11:37:49;57.13;;;1.90;;
1308;SDS011;647;48.840;9.314;2022-10-16T11:40:19;57.00;;;1.80;;
1308;SDS011;647;48.840;9.314;2022-10-16T11:42:50;57.90;;;1.90;;
1308;SDS011;647;48.840;9.314;2022-10-16T11:45:24;57.10;;;1.90;;
1308;SDS011;647;48.840;9.314;2022-10-16T11:47:54;57.00;;;1.80;;
1308;SDS011;647;48.840;9.314;2022-10-16T11:50:25;56.77;;;1.90;;
1308;SDS011;647;48.840;9.314;2022-10-16T11:52:54;56.87;;;1.80;;
1308;SDS011;647;48.840;9.314;2022-10-16T11:55:23;56.77;;;1.70;;
1308;SDS011;647;48.840;9.314;2022-10-16T11:57:51;57.17;;;1.90;;
1308;SDS011;647;48.840;9.314;2022-10-16T12:00:23;57.10;;;2.00;;
1308;SDS011;647;48.840;9.314;2022-10-16T12:02:54;57.37;;;1.83;;
1308;SDS011;647;48.840;9.314;2022-10-16T12:05:24;57.13;;;1.80;;
1308;SDS011;647;48.840;9.314;2022-10-16T12:07:56;57.27;;;2.20;;
1308;SDS011;647;48.840;9.314;2022-10-16T12:10:28;56.87;;;1.80;;
1308;SDS011;647;48.840;9.314;2022-10-16T12:12:57;57.07;;;1.60;;
1308;SDS011;647;48.840;9.314;2022-10-16T12:15:26;57.03;;;1.67;;
1308;SDS011;647;48.840;9.314;2022-10-16T12:17:53;56.77;;;1.90;;
1308;SDS011;647;48.840;9.314;2022-10-16T12:20:25;56.90;;;1.90;;
1308;SDS011;647;48.840;9.314;2022-10-16T12:22:55;57.07;;;1.80;;
1308;SDS011;647;48.840;9.314;2022-10-16T12:25:24;57.00;;;2.10;;
1308;SDS011;647;48.840;9.314;2022-10-16T12:27:53;57.07;;;2.00;;
1308;SDS011;647;48.840;9.314;2022-10-16T12:30:22;58.00;;;1.90;;
1308;SDS011;647;48.840;9.314;2022-10-16T12:32:54;56.97;;;1.90;;
1308;SDS011;647;48.840;9.314;2022-10-16T12:35:22;57.90;;;2.37;;
1308;SDS011;647;48.840;9.314;2022-10-16T12:37:50;57.43;;;2.00;;
1308;SDS011;647;48.840;9.314;2022-10-16T12:40:24;57.60;;;2.17;;
1308;SDS011;647;48.840;9.314;2022-10-16T12:42:52;57.77;;;2.20;;
1308;SDS011;647;48.840;9.314;2022-10-16T12:45:26;57.37;;;2.17;;
1308;SDS011;647;48.840;9.314;2022-10-16T12:47:55;57.37;;;1.90;;
1308;SDS011;647;48.840;9.314;2022-10-16T12:50:24;57.40;;;2.00;;
1308;SDS011;647;48.840;9.314;2022-10-16T12:52:52;57.27;;;2.10;;
1308;SDS011;647;48.840;9.314;2022-10-16T12:55:20;59.57;;;3.07;;
1308;SDS011;647;48.840;9.314;2022-10-16T12:57:56;57.10;;;1.80;;
1308;SDS011;647;48.840;9.314;2022-10-16T13:00:28;57.10;;;2.13;;
1308;SDS011;647;48.840;9.314;2022-10-16T13:03:08;57.97;;;2.50;;
1308;SDS011;647;48.840;9.314;2022-10-16T13:05:44;56.90;;;2.10;;
1308;SDS011;647;48.840;9.314;2022-10-16T13:08:22;57.97;;;2.10;;
1308;SDS011;647;48.840;9.314;2022-10-16T13:10:54;57.10;;;2.40;;
1308;SDS011;647;48.840;9.314;2022-10-16T13:13:35;57.10;;;1.87;;
1308;SDS011;647;48.840;9.314;2022-10-16T13:16:09;57.33;;;2.17;;
1308;SDS011;647;48.840;9.314;2022-10-16T13:18:43;56.87;;;1.90;;
1308;SDS011;647;48.840;9.314;2022-10-16T13:21:19;56.80;;;1.80;;
1308;SDS011;647;48.840;9.314;2022-10-16T13:23:49;57.20;;;1.90;;
1308;SDS011;647;48.840;9.314;2022-10-16T13:26:22;57.27;;;2.23;;
1308;SDS011;647;48.840;9.314;2022-10-16T13:28:51;57.00;;;2.00;;
1308;SDS011;647;48.840;9.314;2022-10-16T13:31:19;56.70;;;1.90;;
1308;SDS011;647;48.840;9.314;2022-10-16T13:33:49;60.40;;;2.20;;
1308;SDS011;647;48.840;9.314;2022-10-16T13:36:20;60.43;;;2.40;;
1308;SDS011;647;48.840;9.314;2022-10-16T13:38:48;57.73;;;1.97;;
1308;SDS011;647;48.840;9.314;2022-10-16T13:41:16;57.07;;;1.80;;
1308;SDS011;647;48.840;9.314;2022-10-16T13:43:44;56.67;;;1.90;;
1308;SDS011;647;48.840;9.314;2022-10-16T13:46:13;57.37;;;1.90;;
1308;SDS011;647;48.840;9.314;2022-10-16T13:48:40;57.57;;;2.00;;
1308;SDS011;647;48.840;9.314;2022-10-16T13:51:12;57.73;;;1.83;;
1308;SDS011;647;48.840;9.314;2022-10-16T13:53:40;57.57;;;1.90;;
1308;SDS011;647;48.840;9.314;2022-10-16T13:56:10;57.80;;;2.50;;
1308;SDS011;647;48.840;9.314;2022-10-16T13:58:37;58.60;;;2.30;;
1308;SDS011;647;48.840;9.314;2022-10-16T14:01:05;57.10;;;1.97;;
1308;SDS011;647;48.840;9.314;2022-10-16T14:03:32;57.40;;;2.10;;
1308;SDS011;647;48.840;9.314;2022-10-16T14:06:02;57.40;;;1.90;;
1308;SDS011;647;48.840;9.314;2022-10-16T14:08:31;57.17;;;2.00;;
1308;SDS011;647;48.840;9.314;2022-10-16T14:10:59;56.97;;;1.93;;
1308;SDS011;647;48.840;9.314;2022-10-16T14:13:29;57.03;;;2.10;;
1308;SDS011;647;48.840;9.314;2022-10-16T14:15:57;57.63;;;2.27;;
1308;SDS011;647;48.840;9.314;2022-10-16T14:18:26;57.53;;;2.30;;
1308;SDS011;647;48.840;9.314;2022-10-16T14:20:54;58.37;;;2.37;;
1308;SDS011;647;48.840;9.314;2022-10-16T14:23:22;59.40;;;2.53;;
1308;SDS011;647;48.840;9.314;2022-10-16T14:25:52;58.77;;;2.90;;
1308;SDS011;647;48.840;9.314;2022-10-16T14:28:20;63.63;;;4.70;;
1308;SDS011;647;48.840;9.314;2022-10-16T14:30:52;60.80;;;5.13;;
1308;SDS011;647;48.840;9.314;2022-10-16T14:33:21;59.77;;;4.00;;
1308;SDS011;647;48.840;9.314;2022-10-16T14:35:57;59.10;;;3.50;;
1308;SDS011;647;48.840;9.314;2022-10-16T14:38:25;58.00;;;2.73;;
1308;SDS011;647;48.840;9.314;2022-10-16T14:40:54;58.87;;;3.33;;
1308;SDS011;647;48.840;9.314;2022-10-16T14:43:26;58.80;;;2.87;;
1308;SDS011;647;48.840;9.314;2022-10-16T14:45:54;58.03;;;3.00;;
1308;SDS011;647;48.840;9.314;2022-10-16T14:48:22;57.67;;;2.50;;
1308;SDS011;647;48.840;9.314;2022-10-16T14:50:50;57.97;;;2.40;;
1308;SDS011;647;48.840;9.314;2022-10-16T14:53:17;58.10;;;2.70;;
1308;SDS011;647;48.840;9.314;2022-10-16T14:55:44;58.10;;;2.73;;
1308;SDS011;647;48.840;9.314;2022-10-16T14:58:14;57.67;;;2.40;;
1308;SDS011;647;48.840;9.314;2022-10-16T15:00:42;58.17;;;2.80;;
1308;SDS011;647;48.840;9.314;2022-10-16T15:03:09;57.63;;;2.20;;
1308;SDS011;647;48.840;9.314;2022-10-16T15:05:36;57.57;;;2.63;;
1308;SDS011;647;48.840;9.314;2022-10-16T15:08:03;57.93;;;2.40;;
1308;SDS011;647;48.840;9.314;2022-10-16T15:10:30;57.50;;;2.50;;
1308;SDS011;647;48.840;9.314;2022-10-16T15:12:58;58.30;;;2.43;;
1308;SDS011;647;48.840;9.314;2022-10-16T15:15:34;57.67;;;2.53;;
1308;SDS011;647;48.840;9.314;2022-10-16T15:18:01;58.07;;;2.80;;
1308;SDS011;647;48.840;9.314;2022-10-16T15:20:29;58.67;;;2.50;;
1308;SDS011;647;48.840;9.314;2022-10-16T15:22:58;58.23;;;2.67;;
1308;SDS011;647;48.840;9.314;2022-10-16T15:25:27;57.70;;;2.80;;
1308;SDS011;647;48.840;9.314;2022-10-16T15:27:55;57.97;;;2.67;;